createdAt,value
2018-03-31T00:00:27.349Z,100065.61
2018-03-31T00:02:54.487Z,100066.23
2018-03-31T00:05:21.468Z,100066.28
2018-03-31T00:07:48.455Z,100050.39
2018-03-31T00:10:15.437Z,100039.85
2018-03-31T00:12:42.426Z,100041.36
2018-03-31T00:15:09.497Z,100025.42
2018-03-31T00:17:36.481Z,100023.84
2018-03-31T00:20:03.539Z,100013.79
2018-03-31T00:22:30.598Z,100013.23
2018-03-31T00:24:57.696Z,100010.63
2018-03-31T00:27:24.682Z,100013.84
2018-03-31T00:29:51.714Z,100018.36
2018-03-31T00:32:18.843Z,100015.55
2018-03-31T00:34:45.826Z,100013.00
2018-03-31T00:37:12.864Z,100020.13
2018-03-31T00:39:39.999Z,100008.76
2018-03-31T00:42:07.057Z,100014.50
2018-03-31T00:44:34.077Z,100003.99
2018-03-31T00:47:01.146Z,100003.05
2018-03-31T00:49:28.130Z,99994.39
2018-03-31T00:51:55.217Z,99989.48
2018-03-31T00:54:22.209Z,99994.95
2018-03-31T00:56:49.203Z,99989.17
2018-03-31T00:59:16.184Z,99988.36
2018-03-31T01:01:43.205Z,99995.81
2018-03-31T01:04:10.183Z,99991.06
2018-03-31T01:06:37.171Z,99993.72
2018-03-31T01:09:04.153Z,99986.70
2018-03-31T01:11:31.134Z,99984.69
2018-03-31T01:13:58.109Z,99987.72
2018-03-31T01:16:25.101Z,99977.57
2018-03-31T01:18:52.101Z,99980.83
2018-03-31T01:21:19.076Z,99989.06
2018-03-31T01:23:46.127Z,99983.45
2018-03-31T01:26:13.201Z,99988.38
2018-03-31T01:28:40.191Z,99980.47
2018-03-31T01:31:07.181Z,99977.61
2018-03-31T01:33:34.214Z,99958.65
2018-03-31T01:36:01.189Z,99960.02
2018-03-31T01:38:28.179Z,99965.06
2018-03-31T01:40:55.251Z,99963.66
2018-03-31T01:43:22.247Z,99972.11
2018-03-31T01:45:49.239Z,99972.98
2018-03-31T01:48:16.291Z,99970.99
2018-03-31T01:50:43.274Z,99968.38
2018-03-31T01:53:10.260Z,99976.75
2018-03-31T01:55:37.336Z,99981.55
2018-03-31T01:58:04.383Z,99970.77
2018-03-31T02:00:31.372Z,99962.10
2018-03-31T02:02:58.477Z,99955.29
2018-03-31T02:05:25.702Z,99956.94
2018-03-31T02:07:52.757Z,99957.73
2018-03-31T02:10:20.037Z,99958.42
2018-03-31T02:12:47.121Z,99946.05
2018-03-31T02:15:14.230Z,99943.72
2018-03-31T02:17:41.209Z,99939.37
2018-03-31T02:20:08.375Z,99950.11
2018-03-31T02:22:35.362Z,99926.22
2018-03-31T02:25:02.431Z,99918.20
2018-03-31T02:27:29.478Z,99915.38
2018-03-31T02:29:56.690Z,99909.70
2018-03-31T02:32:23.680Z,99913.17
2018-03-31T02:34:50.927Z,99903.42
2018-03-31T02:37:17.907Z,99902.09
2018-03-31T02:39:44.893Z,99897.81
2018-03-31T02:42:11.968Z,99904.53
2018-03-31T02:44:39.198Z,99905.77
2018-03-31T02:47:06.178Z,99917.34
2018-03-31T02:49:33.212Z,99909.42
2018-03-31T02:52:00.312Z,99895.27
2018-03-31T02:54:27.343Z,99887.92
2018-03-31T02:56:54.325Z,99880.35
2018-03-31T02:59:21.321Z,99880.48
2018-03-31T03:01:48.298Z,99875.20
2018-03-31T03:04:15.297Z,99878.39
2018-03-31T03:06:42.265Z,99870.87
2018-03-31T03:09:09.251Z,99873.16
2018-03-31T03:11:36.221Z,99874.01
2018-03-31T03:14:03.216Z,99864.36
2018-03-31T03:16:30.214Z,99862.94
2018-03-31T03:18:57.278Z,99853.34
2018-03-31T03:21:24.325Z,99848.92
2018-03-31T03:23:51.373Z,99841.07
2018-03-31T03:26:18.353Z,99840.70
2018-03-31T03:28:45.334Z,99837.31
2018-03-31T03:31:12.604Z,99837.52
2018-03-31T03:33:39.670Z,99830.95
2018-03-31T03:36:06.646Z,99833.57
2018-03-31T03:38:33.632Z,99840.68
2018-03-31T03:41:00.638Z,99838.35
2018-03-31T03:43:27.653Z,99834.12
2018-03-31T03:45:54.635Z,99839.70
2018-03-31T03:48:21.629Z,99834.89
2018-03-31T03:50:48.613Z,99837.39
2018-03-31T03:53:15.601Z,99841.02
2018-03-31T03:55:42.573Z,99847.11
2018-03-31T03:58:09.569Z,99843.07
2018-03-31T04:00:36.569Z,99843.42
2018-03-31T04:03:03.553Z,99841.66
2018-03-31T04:05:30.545Z,99836.80
2018-03-31T04:07:57.521Z,99843.60
2018-03-31T04:10:24.497Z,99836.47
2018-03-31T04:12:51.470Z,99827.56
2018-03-31T04:15:18.445Z,99844.23
2018-03-31T04:17:45.440Z,99822.44
2018-03-31T04:20:12.425Z,99816.83
2018-03-31T04:22:39.430Z,99818.39
2018-03-31T04:25:06.464Z,99814.42
2018-03-31T04:27:33.452Z,99813.84
2018-03-31T04:30:00.525Z,99814.67
2018-03-31T04:32:27.579Z,99804.10
2018-03-31T04:34:54.566Z,99811.03
2018-03-31T04:37:21.554Z,99804.92
2018-03-31T04:39:48.532Z,99807.61
2018-03-31T04:42:15.510Z,99809.35
2018-03-31T04:44:42.508Z,99803.52
2018-03-31T04:47:09.524Z,99803.91
2018-03-31T04:49:36.517Z,99805.38
2018-03-31T04:52:03.496Z,99799.12
2018-03-31T04:54:30.478Z,99799.88
2018-03-31T04:56:57.456Z,99801.45
2018-03-31T04:59:24.498Z,99797.90
2018-03-31T05:01:51.482Z,99805.74
2018-03-31T05:04:18.500Z,99800.59
2018-03-31T05:06:45.495Z,99807.95
2018-03-31T05:09:12.487Z,99797.72
2018-03-31T05:11:39.470Z,99793.27
2018-03-31T05:14:06.450Z,99789.73
2018-03-31T05:16:33.502Z,99799.45
2018-03-31T05:19:00.870Z,99798.83
2018-03-31T05:21:27.921Z,99799.23
2018-03-31T05:23:54.911Z,99804.94
2018-03-31T05:26:21.932Z,99808.91
2018-03-31T05:28:48.928Z,99808.88
2018-03-31T05:31:15.918Z,99806.23
2018-03-31T05:33:42.971Z,99810.59
2018-03-31T05:36:09.958Z,99813.36
2018-03-31T05:38:36.950Z,99800.73
2018-03-31T05:41:03.947Z,99803.80
2018-03-31T05:43:30.971Z,99802.34
2018-03-31T05:45:58.005Z,99792.75
2018-03-31T05:48:24.985Z,99785.36
2018-03-31T05:50:51.969Z,99787.76
2018-03-31T05:53:18.968Z,99779.41
2018-03-31T05:55:45.964Z,99773.22
2018-03-31T05:58:12.958Z,99772.02
2018-03-31T06:00:39.987Z,99775.77
2018-03-31T06:03:06.965Z,99771.56
2018-03-31T06:05:33.945Z,99765.81
2018-03-31T06:08:01.024Z,99759.14
2018-03-31T06:10:28.084Z,99757.81
2018-03-31T06:12:55.061Z,99750.88
2018-03-31T06:15:22.037Z,99748.20
2018-03-31T06:17:49.116Z,99739.42
2018-03-31T06:20:16.101Z,99737.80
2018-03-31T06:22:43.077Z,99733.72
2018-03-31T06:25:10.057Z,99721.69
2018-03-31T06:27:37.034Z,99712.64
2018-03-31T06:30:04.021Z,99709.09
2018-03-31T06:32:31.015Z,99713.39
2018-03-31T06:34:58.010Z,99705.17
2018-03-31T06:37:25.048Z,99694.67
2018-03-31T06:39:52.012Z,99710.58
2018-03-31T06:42:19.009Z,99706.98
2018-03-31T06:44:45.996Z,99705.96
2018-03-31T06:47:13.007Z,99713.02
2018-03-31T06:49:39.998Z,99714.50
2018-03-31T06:52:06.984Z,99716.23
2018-03-31T06:54:34.018Z,99714.50
2018-03-31T06:57:01.004Z,99720.09
2018-03-31T06:59:28.116Z,99722.96
2018-03-31T07:01:55.149Z,99727.77
2018-03-31T07:04:22.133Z,99725.88
2018-03-31T07:06:49.165Z,99717.04
2018-03-31T07:09:16.154Z,99710.64
2018-03-31T07:11:43.155Z,99710.02
2018-03-31T07:14:10.133Z,99705.31
2018-03-31T07:16:37.108Z,99716.61
2018-03-31T07:19:04.187Z,99708.12
2018-03-31T07:21:31.234Z,99704.11
2018-03-31T07:23:58.209Z,99698.98
2018-03-31T07:26:25.229Z,99695.11
2018-03-31T07:28:52.224Z,99696.63
2018-03-31T07:31:19.201Z,99687.93
2018-03-31T07:33:46.185Z,99683.16
2018-03-31T07:36:13.157Z,99682.58
2018-03-31T07:38:40.138Z,99678.38
2018-03-31T07:41:07.121Z,99677.34
2018-03-31T07:43:34.093Z,99676.45
2018-03-31T07:46:01.090Z,99674.92
2018-03-31T07:48:28.166Z,99667.92
2018-03-31T07:50:55.150Z,99666.28
2018-03-31T07:53:22.133Z,99671.13
2018-03-31T07:55:49.122Z,99682.64
2018-03-31T07:58:16.093Z,99682.64
2018-03-31T08:00:43.188Z,99674.89
2018-03-31T08:03:10.236Z,99668.92
2018-03-31T08:05:37.225Z,99661.45
2018-03-31T08:08:04.333Z,99663.86
2018-03-31T08:10:31.346Z,99662.22
2018-03-31T08:12:58.326Z,99665.15
2018-03-31T08:15:25.373Z,99652.67
2018-03-31T08:17:52.349Z,99645.25
2018-03-31T08:20:19.335Z,99650.95
2018-03-31T08:22:46.330Z,99639.15
2018-03-31T08:25:13.325Z,99630.58
2018-03-31T08:27:40.318Z,99633.02
2018-03-31T08:30:07.293Z,99634.64
2018-03-31T08:32:34.269Z,99636.41
2018-03-31T08:35:01.273Z,99622.13
2018-03-31T08:37:28.296Z,99630.39
2018-03-31T08:39:55.278Z,99623.41
2018-03-31T08:42:22.254Z,99617.23
2018-03-31T08:44:49.242Z,99615.98
2018-03-31T08:47:16.261Z,99610.61
2018-03-31T08:49:43.241Z,99612.20
2018-03-31T08:52:10.226Z,99622.62
2018-03-31T08:54:37.220Z,99604.98
2018-03-31T08:57:04.193Z,99609.05
2018-03-31T08:59:31.181Z,99617.77
2018-03-31T09:01:58.179Z,99621.20
2018-03-31T09:04:25.177Z,99625.84
2018-03-31T09:06:52.166Z,99612.47
2018-03-31T09:09:19.197Z,99614.00
2018-03-31T09:11:46.159Z,99617.52
2018-03-31T09:14:13.146Z,99612.28
2018-03-31T09:16:40.168Z,99596.52
2018-03-31T09:19:07.155Z,99596.13
2018-03-31T09:21:34.241Z,99606.47
2018-03-31T09:24:01.224Z,99587.17
2018-03-31T09:26:28.225Z,99582.34
2018-03-31T09:28:55.211Z,99571.82
2018-03-31T09:31:22.193Z,99567.68
2018-03-31T09:33:49.189Z,99563.59
2018-03-31T09:36:16.215Z,99572.02
2018-03-31T09:38:43.196Z,99574.25
2018-03-31T09:41:10.174Z,99564.45
2018-03-31T09:43:37.262Z,99567.70
2018-03-31T09:46:04.253Z,99567.67
2018-03-31T09:48:31.252Z,99557.48
2018-03-31T09:50:58.296Z,99557.02
2018-03-31T09:53:25.282Z,99543.81
2018-03-31T09:55:52.262Z,99534.05
2018-03-31T09:58:19.239Z,99528.59
2018-03-31T10:00:46.229Z,99524.83
2018-03-31T10:03:13.321Z,99525.84
2018-03-31T10:05:40.313Z,99521.53
2018-03-31T10:08:07.303Z,99515.13
2018-03-31T10:10:34.288Z,99511.16
2018-03-31T10:13:01.310Z,99530.86
2018-03-31T10:15:28.370Z,99524.58
2018-03-31T10:17:55.352Z,99534.70
2018-03-31T10:20:22.364Z,99549.27
2018-03-31T10:22:49.345Z,99547.44
2018-03-31T10:25:16.461Z,99543.63
2018-03-31T10:27:43.477Z,99545.32
2018-03-31T10:30:10.474Z,99551.82
2018-03-31T10:32:37.468Z,99557.84
2018-03-31T10:35:04.545Z,99548.80
2018-03-31T10:37:31.528Z,99556.41
2018-03-31T10:39:58.527Z,99557.73
2018-03-31T10:42:25.520Z,99560.57
2018-03-31T10:44:52.522Z,99556.58
2018-03-31T10:47:19.540Z,99546.20
2018-03-31T10:49:46.577Z,99548.14
2018-03-31T10:52:13.579Z,99550.05
2018-03-31T10:54:40.566Z,99555.23
2018-03-31T10:57:07.571Z,99544.41
2018-03-31T10:59:34.586Z,99551.44
2018-03-31T11:02:01.578Z,99543.94
2018-03-31T11:04:28.571Z,99548.59
2018-03-31T11:06:55.562Z,99544.45
2018-03-31T11:09:22.547Z,99553.64
2018-03-31T11:11:49.531Z,99541.93
2018-03-31T11:14:16.545Z,99548.41
2018-03-31T11:16:43.648Z,99536.02
2018-03-31T11:19:10.694Z,99555.06
2018-03-31T11:21:37.680Z,99562.09
2018-03-31T11:24:04.661Z,99551.40
2018-03-31T11:26:31.670Z,99555.77
2018-03-31T11:28:58.670Z,99554.14
2018-03-31T11:31:25.718Z,99548.30
2018-03-31T11:33:52.710Z,99554.80
2018-03-31T11:36:19.702Z,99542.68
2018-03-31T11:38:46.687Z,99540.53
2018-03-31T11:41:13.724Z,99541.23
2018-03-31T11:43:40.706Z,99538.00
2018-03-31T11:46:07.708Z,99530.99
2018-03-31T11:48:34.690Z,99527.36
2018-03-31T11:51:01.711Z,99519.61
2018-03-31T11:53:28.710Z,99517.92
2018-03-31T11:55:55.736Z,99516.75
2018-03-31T11:58:23.672Z,99512.34
2018-03-31T12:00:50.705Z,99507.22
2018-03-31T12:03:17.695Z,99511.28
2018-03-31T12:05:44.694Z,99512.34
2018-03-31T12:08:11.693Z,99500.37
2018-03-31T12:10:38.677Z,99489.83
2018-03-31T12:13:05.685Z,99496.74
2018-03-31T12:15:32.681Z,99498.37
2018-03-31T12:17:59.719Z,99505.59
2018-03-31T12:20:26.728Z,99491.05
2018-03-31T12:22:53.742Z,99489.02
2018-03-31T12:25:20.896Z,99481.08
2018-03-31T12:27:47.881Z,99480.63
2018-03-31T12:30:14.906Z,99477.95
2018-03-31T12:32:41.974Z,99481.48
2018-03-31T12:35:09.087Z,99477.78
2018-03-31T12:37:36.131Z,99469.55
2018-03-31T12:40:03.137Z,99468.69
2018-03-31T12:42:30.232Z,99466.59
2018-03-31T12:44:57.248Z,99463.41
2018-03-31T12:47:24.261Z,99462.55
2018-03-31T12:49:51.282Z,99457.65
2018-03-31T12:52:18.300Z,99453.92
2018-03-31T12:54:45.311Z,99459.28
2018-03-31T12:57:12.397Z,99468.30
2018-03-31T12:59:39.382Z,99465.59
2018-03-31T13:02:06.371Z,99475.95
2018-03-31T13:04:33.354Z,99478.95
2018-03-31T13:07:00.329Z,99480.15
2018-03-31T13:09:27.330Z,99488.53
2018-03-31T13:11:54.313Z,99489.64
2018-03-31T13:14:21.312Z,99482.94
2018-03-31T13:16:48.340Z,99478.99
2018-03-31T13:19:15.332Z,99478.91
2018-03-31T13:21:42.378Z,99480.02
2018-03-31T13:24:09.378Z,99472.63
2018-03-31T13:26:36.476Z,99478.17
2018-03-31T13:29:03.463Z,99478.83
2018-03-31T13:31:30.454Z,99472.55
2018-03-31T13:33:57.515Z,99477.84
2018-03-31T13:36:24.491Z,99482.03
2018-03-31T13:38:51.509Z,99477.79
2018-03-31T13:41:18.498Z,99481.95
2018-03-31T13:43:45.487Z,99486.42
2018-03-31T13:46:12.476Z,99479.81
2018-03-31T15:10:35.904Z,99434.30
2018-03-31T15:13:02.891Z,99429.87
2018-03-31T15:15:29.973Z,99425.84
2018-03-31T15:17:56.981Z,99425.20
2018-03-31T15:20:24.037Z,99422.66
2018-03-31T15:22:51.037Z,99422.83
2018-03-31T15:25:18.026Z,99420.00
2018-03-31T15:27:45.023Z,99407.50
2018-03-31T15:30:12.845Z,99410.73
2018-03-31T15:32:39.926Z,99406.18
2018-03-31T15:35:07.070Z,99403.20
2018-03-31T15:37:34.064Z,99410.25
2018-03-31T15:40:01.222Z,99409.13
2018-03-31T15:42:28.172Z,99411.14
2018-03-31T15:44:55.163Z,99402.68
2018-03-31T15:47:22.153Z,99407.66
2018-03-31T15:49:49.261Z,99401.38
2018-03-31T15:52:16.237Z,99408.34
2018-03-31T17:16:40.305Z,99413.31
2018-03-31T17:19:07.515Z,99413.56
2018-03-31T17:21:34.995Z,99421.08
2018-03-31T17:24:01.973Z,99416.52
2018-03-31T17:26:29.050Z,99414.98
2018-03-31T17:28:56.034Z,99420.84
2018-03-31T17:31:23.457Z,99423.30
2018-03-31T17:33:50.576Z,99426.86
2018-03-31T17:36:17.559Z,99429.70
2018-03-31T17:38:44.701Z,99429.63
2018-03-31T17:41:11.859Z,99441.72
2018-03-31T17:43:39.005Z,99438.05
2018-03-31T17:46:06.050Z,99431.92
2018-03-31T17:48:34.029Z,99439.64
2018-03-31T17:51:01.039Z,99441.41
2018-03-31T17:53:28.051Z,99442.47
2018-03-31T17:55:55.171Z,99437.67
2018-03-31T17:58:22.224Z,99427.75
2018-03-31T18:00:49.277Z,99433.48
2018-03-31T18:03:16.260Z,99430.41
2018-03-31T18:05:43.303Z,99433.89
2018-03-31T18:08:10.417Z,99443.63
2018-03-31T18:10:37.420Z,99442.22
2018-03-31T18:13:04.425Z,99450.00
2018-03-31T18:15:31.409Z,99445.91
2018-03-31T18:17:58.399Z,99443.25
2018-03-31T18:20:25.387Z,99444.38
2018-03-31T18:22:52.384Z,99446.10
2018-03-31T18:25:19.382Z,99444.45
2018-03-31T18:27:46.499Z,99442.27
2018-03-31T18:30:13.495Z,99447.20
2018-03-31T18:32:40.487Z,99443.44
2018-03-31T18:35:07.490Z,99450.08
2018-03-31T18:37:34.481Z,99444.11
2018-03-31T18:40:01.484Z,99445.55
2018-03-31T18:42:28.479Z,99448.72
2018-03-31T18:44:55.480Z,99443.64
2018-03-31T18:47:22.488Z,99451.72
2018-03-31T18:49:49.470Z,99450.55
2018-03-31T18:52:16.463Z,99447.53
2018-03-31T18:54:43.598Z,99443.55
2018-03-31T18:57:10.601Z,99439.68
2018-03-31T18:59:37.599Z,99441.39
2018-03-31T19:02:04.606Z,99439.05
2018-03-31T19:04:32.260Z,99446.40
2018-03-31T19:06:59.285Z,99442.09
2018-03-31T19:09:26.298Z,99440.46
2018-03-31T19:11:53.291Z,99438.98
2018-03-31T19:14:20.308Z,99434.36
2018-03-31T19:16:52.972Z,99434.72
2018-03-31T19:19:19.996Z,99429.55
2018-03-31T19:21:47.006Z,99436.08
2018-03-31T19:24:14.026Z,99430.08
2018-03-31T19:26:41.063Z,99421.13
2018-03-31T19:29:08.101Z,99424.32
2018-03-31T19:31:35.256Z,99420.49
2018-03-31T19:34:02.272Z,99414.78
2018-03-31T19:36:29.277Z,99422.83
2018-03-31T19:38:56.911Z,99426.03
2018-03-31T19:41:23.955Z,99434.61
2018-03-31T19:43:51.041Z,99426.98
2018-03-31T19:46:18.033Z,99425.47
2018-03-31T19:48:45.957Z,99422.45
2018-03-31T19:51:12.970Z,99418.55
2018-03-31T19:53:40.135Z,99419.84
2018-03-31T19:56:07.272Z,99422.25
2018-03-31T19:58:34.455Z,99426.51
2018-03-31T20:01:01.453Z,99421.20
2018-03-31T20:03:28.511Z,99423.76
2018-03-31T20:05:55.754Z,99423.01
2018-03-31T20:08:22.753Z,99427.09
2018-03-31T20:10:49.762Z,99430.72
2018-03-31T20:13:16.790Z,99431.75
2018-03-31T20:15:44.031Z,99433.38
2018-03-31T20:18:11.149Z,99437.57
2018-03-31T20:20:38.172Z,99432.20
2018-03-31T20:44:00.083Z,99449.25
2018-03-31T20:46:27.080Z,99446.19
2018-03-31T20:48:54.081Z,99446.85
2018-03-31T20:51:21.075Z,99448.05
2018-03-31T20:53:48.063Z,99446.22
2018-03-31T20:56:15.038Z,99439.77
2018-03-31T20:58:42.044Z,99440.13
2018-03-31T21:01:09.063Z,99441.82
2018-03-31T21:03:36.075Z,99443.88
2018-03-31T21:06:03.281Z,99429.87
2018-03-31T21:08:30.296Z,99440.30
2018-03-31T21:10:57.324Z,99437.32
2018-03-31T21:13:24.309Z,99429.27
2018-03-31T21:15:51.315Z,99436.23
2018-03-31T21:18:18.294Z,99441.03
2018-03-31T21:20:45.372Z,99441.20
2018-03-31T21:23:12.358Z,99428.98
2018-03-31T21:25:39.436Z,99432.42
2018-03-31T21:28:06.418Z,99425.36
2018-03-31T21:30:33.408Z,99426.92
2018-03-31T21:33:00.420Z,99427.61
2018-03-31T21:35:27.410Z,99432.98
2018-03-31T21:37:54.472Z,99430.10
2018-03-31T21:40:21.457Z,99427.05
2018-03-31T21:42:48.463Z,99428.25
2018-03-31T21:45:15.446Z,99430.03
2018-03-31T21:47:42.432Z,99430.92
2018-03-31T21:50:09.421Z,99425.69
2018-03-31T21:52:36.400Z,99422.72
2018-03-31T21:55:03.397Z,99434.83
2018-03-31T21:57:30.463Z,99437.06
2018-03-31T21:59:57.463Z,99428.91
2018-03-31T22:02:24.460Z,99432.66
2018-03-31T22:04:51.453Z,99428.94
2018-03-31T22:07:18.466Z,99433.40
2018-03-31T22:09:45.445Z,99435.13
2018-03-31T22:12:12.444Z,99438.42
2018-03-31T22:14:44.902Z,99435.19
2018-03-31T22:17:11.885Z,99437.25
2018-03-31T22:19:38.877Z,99443.94
2018-03-31T22:22:05.864Z,99440.27
2018-03-31T22:24:32.860Z,99441.11
2018-03-31T22:26:59.939Z,99430.62
2018-03-31T22:29:26.926Z,99434.16
2018-03-31T22:31:53.931Z,99429.17
2018-03-31T22:34:20.954Z,99439.55
2018-03-31T22:36:47.958Z,99433.98
2018-03-31T22:39:14.993Z,99443.30
2018-03-31T22:41:42.002Z,99435.12
2018-03-31T22:44:09.064Z,99432.03
2018-03-31T22:46:36.050Z,99440.66
2018-03-31T22:49:03.075Z,99425.33
2018-03-31T22:51:30.109Z,99431.39
2018-03-31T22:53:57.346Z,99424.96
2018-03-31T22:56:24.349Z,99427.79
2018-03-31T22:58:51.341Z,99424.68
2018-03-31T23:01:18.339Z,99425.88
2018-03-31T23:03:45.335Z,99426.47
2018-03-31T23:06:12.327Z,99418.34
2018-03-31T23:08:39.310Z,99423.66
2018-03-31T23:11:06.319Z,99423.91
2018-03-31T23:13:33.316Z,99432.59
2018-03-31T23:16:00.328Z,99427.63
2018-03-31T23:18:27.339Z,99423.79
2018-03-31T23:20:54.321Z,99424.96
2018-03-31T23:23:21.305Z,99428.53
2018-03-31T23:25:48.302Z,99421.87
2018-03-31T23:28:15.299Z,99428.41
2018-03-31T23:30:42.285Z,99420.41
2018-03-31T23:33:09.274Z,99410.39
2018-03-31T23:35:36.263Z,99420.63
2018-03-31T23:38:03.238Z,99415.09
2018-03-31T23:40:30.229Z,99424.87
2018-03-31T23:42:57.206Z,99412.13
2018-03-31T23:45:24.197Z,99422.19
2018-03-31T23:47:51.176Z,99420.16
2018-03-31T23:50:18.190Z,99424.06
2018-03-31T23:52:45.161Z,99419.52
2018-03-31T23:55:12.156Z,99417.45
2018-03-31T23:57:39.183Z,99426.69
